ADDS TAF Board (Experimental) INFO Settings
IDs: Format: Expanded Condensed

KTPA - Tampa Intl Arpt, FL, US

Issued at 2336 UTC 23 Jul 2016
Updated at 0059 UTC 24 Jul 2016
Time0053Z 24/01Z 24/02Z 24/03Z 24/04Z 24/05Z 24/06Z 24/07Z 24/08Z 24/09Z 24/10Z 24/11Z 24/12Z 24/13Z
Type OBS PRVL PRVL PRVL PRVL PRVL PRVL PRVL PRVL PRVL PRVL PRVL PRVL PRVL
VIS 10 >6 >6 >6 >6 >6 >6 >6 >6 >6 >6 >6 >6 >6
CIG -- 250 -- -- -- -- -- -- -- -- -- -- -- --
Cover SCT BKN SCT SCT SCT SCT SCT SCT SCT SCT SCT SCT SCT SCT
FltCat VFR VFR VFR VFR VFR VFR VFR VFR VFR VFR VFR VFR VFR VFR
WX -- VCTS -- -- -- -- -- -- -- -- -- -- -- --
WDir 220 250 VRB VRB VRB VRB VRB VRB VRB VRB VRB VRB VRB VRB
WSpd 5 7 3 3 3 3 3 3 3 3 3 3 3 3
WGst -- -- -- -- -- -- -- -- -- -- -- -- -- --
R01/19
XWnd 3 6 VRB VRB VRB VRB VRB VRB VRB VRB VRB VRB VRB VRB
HWnd -4 -3 VRB VRB VRB VRB VRB VRB VRB VRB VRB VRB VRB VRB
R10/28
XWnd -4 -3 VRB VRB VRB VRB VRB VRB VRB VRB VRB VRB VRB VRB
HWnd -3 -6 VRB VRB VRB VRB VRB VRB VRB VRB VRB VRB VRB VRB

Raw TAF
KTPA 232336Z 2400/2424 25007KT P6SM VCTS FEW030CB SCT120 BKN250
  FM240200 VRB03KT P6SM FEW100 SCT250
  FM241400 16006KT P6SM FEW025 BKN250
  FM241700 24007KT P6SM VCTS SCT030CB SCT100 BKN250


Raw METAR
KTPA 240053Z 22005KT 10SM SCT028TCU SCT250 28/23 A3000 RMK AO2 SLP156 TCU NE AND S T02830233
KTPA 232353Z 23006KT 10SM FEW028TCU BKN250 29/23 A2999 RMK AO2 SLP155 TCU N-SW T02940233 10317 20283 56004
KTPA 232253Z 25006KT 10SM FEW028TCU FEW130 BKN250 31/23 A2999 RMK AO2 SLP156 TCU SE T03060233
KTPA 232153Z 24007KT 10SM FEW028 FEW055 FEW100 BKN250 31/23 A3000 RMK AO2 SLP157 CB DSNT SE T03060233

METAR Board
Radar Display
Forecast Discussion

TAF Board Legend

Potential Impact
Threat None Slight Moderate High
Visibility (sm) ≥5.1 5.1>X≥3 3>X≥1 <1
Ceiling (100 ft) ≥30.1 30.1>X≥10 10>X≥5 <5
Wind Speed (kt) <10 10≤X<20 20≤X<30 ≥30
Wind Gust (kt) <15 15≤X<25 25≤X<35 ≥35
Weather No Wx Reported VCTS,-TS,-FZRA,SN TS,FZRA +TS,+FZRA,+SN